createdAt,value
2022-09-23T00:00:13.144Z,15.30
2022-09-23T00:01:14.911Z,15.30
2022-09-23T00:02:16.902Z,15.29
2022-09-23T00:03:20.270Z,15.28
2022-09-23T00:04:21.816Z,15.26
2022-09-23T00:05:23.311Z,15.26
2022-09-23T00:06:24.879Z,15.25
2022-09-23T00:07:26.358Z,15.25
2022-09-23T00:08:28.024Z,15.21
2022-09-23T00:09:29.454Z,15.22
2022-09-23T00:10:33.599Z,15.21
2022-09-23T00:11:35.058Z,15.18
2022-09-23T00:12:36.515Z,15.18
2022-09-23T00:13:38.235Z,15.17
2022-09-23T00:14:39.713Z,15.16
2022-09-23T00:15:41.188Z,15.16
2022-09-23T00:16:42.747Z,15.14
2022-09-23T00:17:44.503Z,15.13
2022-09-23T00:18:46.082Z,15.12
2022-09-23T00:19:48.323Z,15.11
2022-09-23T00:20:49.785Z,15.09
2022-09-23T00:21:51.237Z,15.09
2022-09-23T00:22:53.371Z,15.07
2022-09-23T00:23:54.866Z,15.06
2022-09-23T00:24:56.331Z,15.05
2022-09-23T00:26:01.206Z,15.04
2022-09-23T00:27:02.738Z,15.01
2022-09-23T00:28:04.246Z,15.01
2022-09-23T00:29:05.667Z,15.00
2022-09-23T00:30:07.502Z,14.98
2022-09-23T00:31:13.525Z,14.99
2022-09-23T00:32:15.196Z,14.98
2022-09-23T00:33:16.647Z,14.96
2022-09-23T00:34:18.071Z,14.97
2022-09-23T00:35:19.763Z,14.94
2022-09-23T00:36:21.183Z,14.94
2022-09-23T00:37:22.706Z,14.91
2022-09-23T00:38:24.131Z,14.91
2022-09-23T00:39:26.390Z,14.90
2022-09-23T00:40:27.874Z,14.89
2022-09-23T00:41:29.495Z,14.88
2022-09-23T00:42:30.974Z,14.88
2022-09-23T00:43:39.262Z,14.87
2022-09-23T00:44:42.038Z,14.87
2022-09-23T00:45:45.275Z,14.85
2022-09-23T00:46:46.818Z,14.84
2022-09-23T00:47:52.383Z,14.82
2022-09-23T00:48:59.290Z,14.81
2022-09-23T00:50:01.754Z,14.81
2022-09-23T00:51:03.292Z,14.78
2022-09-23T00:52:09.276Z,14.78
2022-09-23T00:53:11.637Z,14.77
2022-09-23T00:54:13.093Z,14.76
2022-09-23T00:55:18.481Z,14.74
2022-09-23T00:56:20.215Z,14.73
2022-09-23T00:57:21.775Z,14.72
2022-09-23T00:58:31.191Z,14.71
2022-09-23T00:59:32.806Z,14.69
2022-09-23T01:00:35.556Z,14.69
2022-09-23T01:01:37.573Z,14.66
2022-09-23T01:02:39.457Z,14.65
2022-09-23T01:03:44.663Z,14.64
2022-09-23T01:04:46.140Z,14.64
2022-09-23T01:05:47.606Z,14.63
2022-09-23T01:06:49.240Z,14.60
2022-09-23T01:07:50.863Z,14.60
2022-09-23T01:08:52.336Z,14.59
2022-09-23T01:09:53.854Z,14.57
2022-09-23T01:11:14.336Z,14.57
2022-09-23T01:12:18.587Z,14.55
2022-09-23T01:13:20.239Z,14.55
2022-09-23T01:14:21.812Z,14.55
2022-09-23T01:15:42.123Z,14.52
2022-09-23T01:16:44.487Z,14.52
2022-09-23T01:17:50.691Z,14.52
2022-09-23T01:18:57.520Z,14.51
2022-09-23T01:20:17.871Z,14.49
2022-09-23T01:21:19.403Z,14.49
2022-09-23T01:22:21.838Z,14.47
2022-09-23T01:23:23.418Z,14.47
2022-09-23T01:24:30.922Z,14.46
2022-09-23T01:25:35.131Z,14.45
2022-09-23T01:26:52.388Z,14.42
2022-09-23T01:28:05.604Z,14.41
2022-09-23T01:29:25.641Z,14.40
2022-09-23T01:30:39.333Z,14.36
2022-09-23T01:31:52.948Z,14.35
2022-09-23T01:32:57.322Z,14.33
2022-09-23T01:34:02.195Z,14.32
2022-09-23T01:35:03.955Z,14.31
2022-09-23T01:36:23.880Z,14.29
2022-09-23T01:37:28.667Z,14.29
2022-09-23T01:38:33.056Z,14.27
2022-09-23T01:39:35.301Z,14.26
2022-09-23T01:40:36.982Z,14.25
2022-09-23T01:41:44.474Z,14.24
2022-09-23T01:42:48.069Z,14.23
2022-09-23T01:43:52.711Z,14.23
2022-09-23T01:45:00.344Z,14.21
2022-09-23T01:46:01.809Z,14.20
2022-09-23T01:47:14.181Z,14.19
2022-09-23T01:48:15.759Z,14.18
2022-09-23T01:49:22.183Z,14.17
2022-09-23T01:50:46.580Z,14.16
2022-09-23T01:51:49.468Z,14.15
2022-09-23T01:52:50.959Z,14.13
2022-09-23T01:53:54.702Z,14.14
2022-09-23T01:55:16.132Z,14.11
2022-09-23T01:56:23.258Z,14.10
2022-09-23T01:57:27.564Z,14.09
2022-09-23T01:58:35.246Z,14.07
2022-09-23T01:59:38.209Z,14.08
2022-09-23T02:00:40.822Z,14.07
2022-09-23T02:02:02.632Z,14.05
2022-09-23T02:03:07.794Z,14.05
2022-09-23T02:04:11.555Z,14.04
2022-09-23T02:05:14.858Z,14.03
2022-09-23T02:06:23.369Z,14.02
2022-09-23T02:07:25.857Z,14.02
2022-09-23T02:08:29.502Z,14.00
2022-09-23T02:09:35.845Z,14.00
2022-09-23T02:10:52.831Z,14.01
2022-09-23T02:11:55.028Z,14.00
2022-09-23T02:12:57.783Z,13.98
2022-09-23T02:14:04.242Z,13.98
2022-09-23T02:15:09.363Z,13.97
2022-09-23T02:16:13.261Z,13.96
2022-09-23T02:17:15.894Z,13.96
2022-09-23T02:18:19.734Z,13.94
2022-09-23T02:19:27.125Z,13.94
2022-09-23T02:20:30.592Z,13.92
2022-09-23T02:21:36.063Z,13.91
2022-09-23T02:22:41.212Z,13.89
2022-09-23T02:23:43.363Z,13.88
2022-09-23T02:24:45.162Z,13.87
2022-09-23T02:25:55.507Z,13.87
2022-09-23T02:27:06.023Z,13.84
2022-09-23T02:28:19.003Z,13.84
2022-09-23T02:29:24.754Z,13.82
2022-09-23T02:30:29.982Z,13.81
2022-09-23T02:31:49.976Z,13.81
2022-09-23T02:32:55.622Z,13.79
2022-09-23T02:33:57.039Z,13.78
2022-09-23T02:35:06.130Z,13.76
2022-09-23T02:36:12.332Z,13.76
2022-09-23T02:37:17.097Z,13.76
2022-09-23T02:38:29.603Z,13.73
2022-09-23T02:39:34.698Z,13.73
2022-09-23T02:40:57.476Z,13.72
2022-09-23T02:42:05.986Z,13.72
2022-09-23T02:43:10.248Z,13.68
2022-09-23T02:44:12.739Z,13.67
2022-09-23T02:45:14.478Z,13.68
2022-09-23T02:46:15.991Z,13.67
2022-09-23T02:47:17.874Z,13.65
2022-09-23T02:48:23.227Z,13.64
2022-09-23T02:49:30.831Z,13.64
2022-09-23T02:50:32.530Z,13.61
2022-09-23T02:51:38.182Z,13.62
2022-09-23T02:52:39.655Z,13.61
2022-09-23T02:53:41.230Z,13.60
2022-09-23T02:54:42.726Z,13.59
2022-09-23T02:55:44.184Z,13.59
2022-09-23T02:56:45.699Z,13.59
2022-09-23T02:57:48.249Z,13.58
2022-09-23T02:58:50.279Z,13.57
2022-09-23T02:59:51.890Z,13.55
2022-09-23T03:01:05.142Z,13.55
2022-09-23T03:02:17.412Z,13.53
2022-09-23T03:03:25.030Z,13.52
2022-09-23T03:04:35.695Z,13.52
2022-09-23T03:05:38.059Z,13.50
2022-09-23T03:06:45.759Z,13.50
2022-09-23T03:07:58.718Z,13.48
2022-09-23T03:09:08.623Z,13.48
2022-09-23T03:10:12.556Z,13.47
2022-09-23T03:11:14.051Z,13.47
2022-09-23T03:12:36.277Z,13.44
2022-09-23T03:14:05.093Z,13.43
2022-09-23T03:15:09.196Z,13.43
2022-09-23T03:16:10.641Z,13.41
2022-09-23T03:17:19.939Z,13.40
2022-09-23T03:18:31.657Z,13.39
2022-09-23T03:19:35.134Z,13.38
2022-09-23T03:20:38.290Z,13.37
2022-09-23T03:21:45.163Z,13.35
2022-09-23T03:22:51.548Z,13.35
2022-09-23T03:23:53.026Z,13.34
2022-09-23T03:24:54.547Z,13.34
2022-09-23T03:25:56.111Z,13.33
2022-09-23T03:27:00.178Z,13.31
2022-09-23T03:28:01.779Z,13.31
2022-09-23T03:29:04.203Z,13.31
2022-09-23T03:30:06.136Z,13.31
2022-09-23T03:31:08.328Z,13.29
2022-09-23T03:32:09.836Z,13.29
2022-09-23T03:33:12.527Z,13.29
2022-09-23T03:34:16.418Z,13.28
2022-09-23T03:35:17.983Z,13.28
2022-09-23T03:36:39.662Z,13.28
2022-09-23T03:37:49.934Z,13.25
2022-09-23T03:38:52.800Z,13.25
2022-09-23T03:39:55.211Z,13.23
2022-09-23T03:40:56.672Z,13.22
2022-09-23T03:41:59.031Z,13.21
2022-09-23T03:43:01.489Z,13.20
2022-09-23T03:44:03.134Z,13.19
2022-09-23T03:45:07.294Z,13.17
2022-09-23T03:46:08.803Z,13.17
2022-09-23T03:47:12.395Z,13.16
2022-09-23T03:48:15.699Z,13.14
2022-09-23T03:49:18.178Z,13.12
2022-09-23T03:50:20.863Z,13.12
2022-09-23T03:51:23.752Z,13.10
2022-09-23T03:52:25.581Z,13.09
2022-09-23T03:53:27.089Z,13.08
2022-09-23T03:54:33.401Z,13.08
2022-09-23T03:55:39.318Z,13.06
2022-09-23T03:56:40.815Z,13.04
2022-09-23T03:57:42.429Z,13.05
2022-09-23T03:58:46.446Z,13.04
2022-09-23T03:59:48.971Z,13.02
2022-09-23T04:00:50.599Z,13.03
2022-09-23T04:01:52.261Z,13.00
2022-09-23T04:02:53.810Z,13.00
2022-09-23T04:03:55.318Z,13.00
2022-09-23T04:04:57.379Z,13.00
2022-09-23T04:05:58.939Z,12.95
2022-09-23T04:07:00.469Z,12.94
2022-09-23T04:08:02.014Z,12.91
2022-09-23T04:09:03.549Z,12.88
2022-09-23T04:10:05.547Z,12.87
2022-09-23T04:11:07.038Z,12.85
2022-09-23T04:12:09.149Z,12.85
2022-09-23T04:13:10.754Z,12.85
2022-09-23T04:14:12.277Z,12.85
2022-09-23T04:15:13.753Z,12.85
2022-09-23T04:16:15.505Z,12.84
2022-09-23T04:17:17.035Z,12.84
2022-09-23T04:18:18.899Z,12.85
2022-09-23T04:19:20.401Z,12.85
2022-09-23T04:20:21.833Z,12.84
2022-09-23T04:21:23.343Z,12.82
2022-09-23T04:22:25.264Z,12.83
2022-09-23T04:23:26.882Z,12.82
2022-09-23T04:24:28.457Z,12.80
2022-09-23T04:25:29.892Z,12.76
2022-09-23T04:26:31.663Z,12.74
2022-09-23T04:27:37.418Z,12.70
2022-09-23T04:28:39.328Z,12.68
2022-09-23T04:29:40.826Z,12.67
2022-09-23T04:30:46.174Z,12.66
2022-09-23T04:31:47.798Z,12.67
2022-09-23T04:32:50.003Z,12.67
2022-09-23T04:33:54.796Z,12.67
2022-09-23T04:34:56.260Z,12.67
2022-09-23T04:35:57.799Z,12.69
2022-09-23T04:36:59.306Z,12.68
2022-09-23T04:38:00.726Z,12.68
2022-09-23T04:39:02.272Z,12.69
2022-09-23T04:40:04.036Z,12.68
2022-09-23T04:41:08.663Z,12.69
2022-09-23T04:42:10.160Z,12.70
2022-09-23T04:43:13.551Z,12.70
2022-09-23T04:44:15.224Z,12.68
2022-09-23T04:45:16.730Z,12.70
2022-09-23T04:46:18.257Z,12.69
2022-09-23T04:47:19.802Z,12.70
2022-09-23T04:48:21.240Z,12.70
2022-09-23T04:49:23.580Z,12.70
2022-09-23T04:50:26.108Z,12.72
2022-09-23T04:51:27.783Z,12.71
2022-09-23T04:52:30.043Z,12.65
2022-09-23T04:53:33.991Z,12.62
2022-09-23T04:54:35.573Z,12.61
2022-09-23T04:55:37.018Z,12.64
2022-09-23T04:56:39.418Z,12.63
2022-09-23T04:57:41.371Z,12.65
2022-09-23T04:58:43.294Z,12.66
2022-09-23T04:59:45.281Z,12.65
2022-09-23T05:00:46.967Z,12.65
2022-09-23T05:01:49.242Z,12.68
2022-09-23T05:02:50.715Z,12.67
2022-09-23T05:03:52.996Z,12.69
2022-09-23T05:04:55.045Z,12.68
2022-09-23T05:05:59.881Z,12.68
2022-09-23T05:07:03.529Z,12.72
2022-09-23T05:08:05.161Z,12.71
2022-09-23T05:09:07.345Z,12.72
2022-09-23T05:10:08.891Z,12.71
2022-09-23T05:11:10.387Z,12.72
2022-09-23T05:12:11.989Z,12.73
2022-09-23T05:13:13.554Z,12.72
2022-09-23T05:14:15.092Z,12.73
2022-09-23T05:15:16.608Z,12.72
2022-09-23T05:16:18.339Z,12.73
2022-09-23T05:17:20.949Z,12.74
2022-09-23T05:18:22.475Z,12.73
2022-09-23T05:19:24.172Z,12.74
2022-09-23T05:20:25.762Z,12.73
2022-09-23T05:21:31.309Z,12.73
2022-09-23T05:22:32.803Z,12.72
2022-09-23T05:23:34.304Z,12.70
2022-09-23T05:24:36.183Z,12.68
2022-09-23T05:25:38.510Z,12.68
2022-09-23T05:26:40.048Z,12.70
2022-09-23T05:27:42.263Z,12.70
2022-09-23T05:28:43.781Z,12.70
2022-09-23T05:29:45.247Z,12.70
2022-09-23T05:30:46.834Z,12.70
2022-09-23T05:31:48.369Z,12.71
2022-09-23T05:32:49.831Z,12.70
2022-09-23T05:33:52.057Z,12.70
2022-09-23T05:34:55.121Z,12.70
2022-09-23T05:35:56.575Z,12.70
2022-09-23T05:36:58.368Z,12.68
2022-09-23T05:38:00.300Z,12.68
2022-09-23T05:39:01.895Z,12.68
2022-09-23T05:40:03.506Z,12.68
2022-09-23T05:41:05.978Z,12.69
2022-09-23T05:42:07.465Z,12.71
2022-09-23T05:43:09.186Z,12.71
2022-09-23T05:44:10.822Z,12.71
2022-09-23T05:45:35.776Z,12.71
2022-09-23T05:46:37.853Z,12.72
2022-09-23T05:47:39.793Z,12.73
2022-09-23T05:48:41.667Z,12.73
2022-09-23T05:49:59.162Z,12.72
2022-09-23T05:51:01.657Z,12.73
2022-09-23T05:52:03.143Z,12.73
2022-09-23T05:53:04.611Z,12.72
2022-09-23T05:54:06.456Z,12.72
2022-09-23T05:55:08.201Z,12.73
2022-09-23T05:56:09.639Z,12.73
2022-09-23T05:57:25.644Z,12.75
2022-09-23T05:58:38.636Z,12.74
2022-09-23T05:59:40.099Z,12.76
2022-09-23T06:00:42.301Z,12.76
2022-09-23T06:01:43.807Z,12.79
2022-09-23T06:02:46.861Z,12.79
2022-09-23T06:03:48.584Z,12.82
2022-09-23T06:04:50.027Z,12.82
2022-09-23T06:05:54.854Z,12.85
2022-09-23T06:06:56.294Z,12.86
2022-09-23T06:07:58.389Z,12.88
2022-09-23T06:09:00.160Z,12.89
2022-09-23T06:10:01.842Z,12.90
2022-09-23T06:11:05.831Z,12.94
2022-09-23T06:12:07.459Z,12.98
2022-09-23T06:13:09.123Z,13.02
2022-09-23T06:14:13.904Z,13.04
2022-09-23T06:15:15.446Z,13.07
2022-09-23T06:16:17.001Z,13.09
2022-09-23T06:17:18.496Z,13.12
2022-09-23T06:18:20.016Z,13.15
2022-09-23T06:19:21.555Z,13.17
2022-09-23T06:20:23.059Z,13.19
2022-09-23T06:21:24.561Z,13.20
2022-09-23T06:22:35.757Z,13.23
2022-09-23T06:23:41.438Z,13.26
2022-09-23T06:24:43.403Z,13.28
2022-09-23T06:25:44.872Z,13.29
2022-09-23T06:26:46.563Z,13.32
2022-09-23T06:27:56.886Z,13.34
2022-09-23T06:28:58.378Z,13.35
2022-09-23T06:29:59.876Z,13.36
2022-09-23T06:31:03.203Z,13.39
2022-09-23T06:32:05.153Z,13.41
2022-09-23T06:33:06.649Z,13.41
2022-09-23T06:34:13.122Z,13.44
2022-09-23T06:35:25.575Z,13.46
2022-09-23T06:36:40.178Z,13.48
2022-09-23T06:37:45.150Z,13.51
2022-09-23T06:38:49.278Z,13.53
2022-09-23T06:39:50.742Z,13.55
2022-09-23T06:40:52.617Z,13.58
2022-09-23T06:41:54.305Z,13.58
2022-09-23T06:42:57.810Z,13.53
2022-09-23T06:43:59.328Z,13.62
2022-09-23T06:45:02.111Z,13.64
2022-09-23T06:46:04.395Z,13.66
2022-09-23T06:47:06.045Z,13.69
2022-09-23T06:48:08.324Z,13.71
2022-09-23T06:49:10.621Z,13.72
2022-09-23T06:50:12.669Z,13.76
2022-09-23T06:51:19.771Z,13.77
2022-09-23T06:52:21.232Z,13.79
2022-09-23T06:53:25.769Z,13.82
2022-09-23T06:54:28.963Z,13.84
2022-09-23T06:55:30.487Z,13.86
2022-09-23T06:56:37.814Z,13.89
2022-09-23T06:57:41.498Z,13.90
2022-09-23T06:58:43.136Z,13.92
2022-09-23T06:59:44.946Z,13.96
2022-09-23T07:00:46.375Z,13.99
2022-09-23T07:01:48.346Z,14.00
2022-09-23T07:02:50.101Z,14.03
2022-09-23T07:03:52.115Z,14.05
2022-09-23T07:04:57.416Z,14.08
2022-09-23T07:05:59.131Z,14.10
2022-09-23T07:07:00.618Z,14.13
2022-09-23T07:08:03.052Z,14.16
2022-09-23T07:09:05.754Z,14.18
2022-09-23T07:10:07.335Z,14.22
2022-09-23T07:11:13.380Z,14.25
2022-09-23T07:12:15.023Z,14.27
2022-09-23T07:13:16.554Z,14.31
2022-09-23T07:14:18.315Z,14.32
2022-09-23T07:15:19.765Z,14.35
2022-09-23T07:16:21.364Z,14.38
2022-09-23T07:17:24.424Z,14.40
2022-09-23T07:18:26.120Z,14.45
2022-09-23T07:19:27.635Z,14.49
2022-09-23T07:20:29.731Z,14.52
2022-09-23T07:21:31.160Z,14.55
2022-09-23T07:22:32.663Z,14.58
2022-09-23T07:23:34.198Z,14.61
2022-09-23T07:24:35.654Z,14.67
2022-09-23T07:25:37.123Z,14.72
2022-09-23T07:26:43.493Z,14.76
2022-09-23T07:27:49.593Z,14.82
2022-09-23T07:28:55.419Z,14.88
2022-09-23T07:29:57.271Z,14.92
2022-09-23T07:31:03.213Z,14.99
2022-09-23T07:32:13.115Z,15.06
2022-09-23T07:33:28.157Z,15.11
2022-09-23T07:34:32.797Z,15.17
2022-09-23T07:35:34.238Z,15.20
2022-09-23T07:36:37.419Z,15.26
2022-09-23T07:37:39.728Z,15.31
2022-09-23T07:38:45.225Z,15.37
2022-09-23T07:39:47.174Z,15.40
2022-09-23T07:40:49.181Z,15.46
2022-09-23T07:41:50.718Z,15.51
2022-09-23T07:42:52.185Z,15.57
2022-09-23T07:43:55.350Z,15.63
2022-09-23T07:44:57.071Z,15.68
2022-09-23T07:45:59.378Z,15.73
2022-09-23T07:47:00.947Z,15.80
2022-09-23T07:48:02.491Z,15.83
2022-09-23T07:49:04.421Z,15.90
2022-09-23T07:50:06.354Z,15.96
2022-09-23T07:51:12.764Z,15.99
2022-09-23T07:52:14.316Z,16.08
2022-09-23T07:53:16.019Z,16.14
2022-09-23T07:54:18.270Z,16.19
2022-09-23T07:55:21.077Z,16.22
2022-09-23T07:56:26.086Z,16.28
2022-09-23T07:57:27.573Z,16.31
2022-09-23T07:58:29.025Z,16.38
2022-09-23T07:59:30.504Z,16.43
2022-09-23T08:00:32.759Z,16.50
2022-09-23T08:01:38.069Z,16.55
2022-09-23T08:02:40.232Z,16.63
2022-09-23T08:03:41.707Z,16.69
2022-09-23T08:04:43.213Z,16.75
2022-09-23T08:05:45.946Z,16.83
2022-09-23T08:06:48.438Z,16.86
2022-09-23T08:07:49.955Z,16.94
2022-09-23T08:08:53.425Z,17.01
2022-09-23T08:09:55.550Z,17.07
2022-09-23T08:11:01.052Z,17.12
2022-09-23T08:12:02.542Z,17.22
2022-09-23T08:13:04.039Z,17.30
2022-09-23T08:14:07.865Z,17.38
2022-09-23T08:15:09.450Z,17.46
2022-09-23T08:16:11.023Z,17.50
2022-09-23T08:17:12.780Z,17.53
2022-09-23T08:18:14.243Z,17.63
2022-09-23T08:19:15.806Z,17.74
2022-09-23T08:20:37.234Z,17.82
2022-09-23T08:21:39.541Z,17.96
2022-09-23T08:22:41.038Z,18.03
2022-09-23T08:23:42.528Z,18.08
2022-09-23T08:24:44.035Z,18.16
2022-09-23T08:25:48.134Z,18.32
2022-09-23T08:26:51.389Z,18.43
2022-09-23T08:27:52.901Z,18.57
2022-09-23T08:28:54.650Z,18.70
2022-09-23T08:29:56.132Z,18.80
2022-09-23T08:30:57.678Z,18.93
2022-09-23T08:31:59.498Z,19.04
2022-09-23T08:33:01.019Z,19.18
2022-09-23T08:34:02.724Z,19.29
2022-09-23T08:35:04.302Z,19.40
2022-09-23T08:36:05.986Z,19.54
2022-09-23T08:37:11.167Z,19.68
2022-09-23T08:38:12.678Z,19.85
2022-09-23T08:39:15.443Z,19.96
2022-09-23T08:40:17.040Z,20.05
2022-09-23T08:41:37.167Z,20.18
2022-09-23T08:42:39.305Z,20.27
2022-09-23T08:43:45.416Z,20.33
2022-09-23T08:44:48.263Z,20.46
2022-09-23T08:45:51.136Z,20.55
2022-09-23T08:46:54.688Z,20.72
2022-09-23T08:47:56.454Z,20.93
2022-09-23T08:48:57.920Z,21.00
2022-09-23T08:49:59.432Z,21.11
2022-09-23T08:51:27.190Z,21.27
2022-09-23T08:52:28.673Z,21.38
2022-09-23T08:53:35.038Z,21.41
2022-09-23T08:54:36.507Z,21.16
2022-09-23T08:55:39.571Z,21.15
2022-09-23T08:56:41.039Z,21.23
2022-09-23T08:58:24.359Z,21.39
2022-09-23T08:59:36.847Z,21.68
2022-09-23T09:00:42.076Z,21.88
2022-09-23T09:01:48.226Z,22.04
2022-09-23T09:02:49.937Z,22.12
2022-09-23T09:03:52.497Z,22.22
2022-09-23T09:04:54.537Z,22.25
2022-09-23T09:05:56.827Z,22.35
2022-09-23T09:07:31.814Z,22.49
2022-09-23T09:08:31.275Z,22.65
2022-09-23T09:09:46.270Z,22.74
2022-09-23T09:10:47.851Z,22.90
2022-09-23T09:11:49.616Z,22.96
2022-09-23T09:12:54.074Z,23.05
2022-09-23T09:14:10.903Z,23.12
2022-09-23T09:15:13.093Z,23.18
2022-09-23T09:16:55.504Z,23.26
2022-09-23T09:18:11.269Z,23.43
2022-09-23T09:19:15.458Z,23.52
2022-09-23T09:20:24.187Z,23.23
2022-09-23T09:21:32.460Z,23.33
2022-09-23T09:22:39.839Z,23.50
2022-09-23T09:23:57.358Z,23.64
2022-09-23T09:25:04.154Z,23.72
2022-09-23T09:26:05.811Z,23.78
2022-09-23T09:27:10.936Z,23.64
2022-09-23T09:28:12.375Z,23.81
2022-09-23T09:29:31.262Z,23.90
2022-09-23T09:30:36.291Z,23.99
2022-09-23T09:31:47.749Z,23.90
2022-09-23T09:32:55.232Z,23.82
2022-09-23T09:34:00.872Z,23.97
2022-09-23T09:35:05.713Z,23.94
2022-09-23T09:36:09.492Z,23.97
2022-09-23T09:37:13.714Z,24.06
2022-09-23T09:38:15.266Z,24.06
2022-09-23T09:39:17.247Z,24.18
2022-09-23T09:40:20.366Z,24.31
2022-09-23T09:41:24.593Z,24.40
2022-09-23T09:42:40.262Z,24.43
2022-09-23T09:43:44.173Z,24.57
2022-09-23T09:44:55.394Z,24.62
2022-09-23T09:46:04.183Z,24.70
2022-09-23T09:47:26.936Z,24.69
2022-09-23T09:48:32.451Z,24.86
2022-09-23T09:49:45.813Z,24.95
2022-09-23T09:50:51.881Z,24.85
2022-09-23T09:52:11.542Z,24.95
2022-09-23T09:53:26.158Z,24.97
2022-09-23T09:54:28.592Z,25.04
2022-09-23T09:55:30.183Z,25.14
2022-09-23T09:56:32.183Z,25.19
2022-09-23T09:57:37.166Z,25.28
2022-09-23T09:58:41.622Z,25.27
2022-09-23T09:59:44.085Z,25.35
2022-09-23T10:00:46.060Z,25.40
2022-09-23T10:01:47.604Z,25.50
2022-09-23T10:02:52.468Z,25.52
2022-09-23T10:03:55.690Z,25.53
2022-09-23T10:05:00.970Z,25.33
2022-09-23T10:06:03.495Z,25.28
2022-09-23T10:07:06.492Z,25.07
2022-09-23T10:08:23.272Z,25.06
2022-09-23T10:09:24.735Z,25.24
2022-09-23T10:10:32.745Z,25.40
2022-09-23T10:11:34.958Z,25.55
2022-09-23T10:12:43.356Z,25.26
2022-09-23T10:14:00.764Z,25.16
2022-09-23T10:15:02.217Z,25.27
2022-09-23T10:16:04.012Z,25.42
2022-09-23T10:17:06.089Z,25.46
2022-09-23T10:18:20.998Z,25.49
2022-09-23T10:19:25.827Z,25.56
2022-09-23T10:20:31.745Z,25.54
2022-09-23T10:21:36.607Z,25.50
2022-09-23T10:22:40.409Z,25.53
2022-09-23T10:23:45.564Z,25.73
2022-09-23T10:24:50.841Z,25.87
2022-09-23T10:26:02.535Z,25.72
2022-09-23T10:27:07.712Z,25.77
2022-09-23T10:28:30.719Z,25.85
2022-09-23T10:29:32.967Z,26.12
2022-09-23T10:30:38.447Z,26.20
2022-09-23T10:31:40.076Z,26.28
2022-09-23T10:32:44.917Z,26.32
2022-09-23T10:33:49.671Z,26.45
2022-09-23T10:35:09.423Z,26.44
2022-09-23T10:36:11.061Z,26.54
2022-09-23T10:37:21.515Z,26.68
2022-09-23T10:38:22.960Z,26.79
2022-09-23T10:39:43.136Z,26.91
2022-09-23T10:41:03.492Z,27.10
2022-09-23T10:42:25.458Z,27.24
2022-09-23T10:43:45.433Z,27.35
2022-09-23T10:45:24.491Z,27.45
2022-09-23T10:46:47.573Z,27.55
2022-09-23T10:47:49.108Z,27.71
2022-09-23T10:49:04.676Z,27.79
2022-09-23T10:50:08.180Z,27.85
2022-09-23T10:51:25.959Z,27.81
2022-09-23T10:52:38.026Z,27.84
2022-09-23T10:53:44.202Z,27.88
2022-09-23T10:54:54.470Z,27.98
2022-09-23T10:56:14.883Z,27.99
2022-09-23T10:57:43.399Z,28.07
2022-09-23T10:58:50.394Z,28.07
2022-09-23T10:59:51.903Z,27.88
2022-09-23T11:01:02.583Z,27.89
2022-09-23T11:02:07.119Z,27.84
2022-09-23T11:03:12.207Z,27.81
2022-09-23T11:04:14.082Z,27.83
2022-09-23T11:05:18.868Z,27.87
2022-09-23T11:06:20.288Z,27.78
2022-09-23T11:07:36.954Z,27.78
2022-09-23T11:09:08.151Z,27.70
2022-09-23T11:10:46.722Z,27.60
2022-09-23T11:11:54.839Z,27.57
2022-09-23T11:13:01.485Z,27.43
2022-09-23T11:14:17.012Z,27.20
2022-09-23T11:15:41.380Z,27.07
2022-09-23T11:16:42.822Z,27.02
2022-09-23T11:18:03.095Z,26.94
2022-09-23T11:19:23.186Z,26.92
2022-09-23T11:20:30.656Z,26.79
2022-09-23T11:21:35.254Z,26.75
2022-09-23T11:22:37.950Z,26.65
2022-09-23T11:23:39.536Z,26.57
2022-09-23T11:25:07.177Z,26.55
2022-09-23T11:26:12.323Z,26.56
2022-09-23T11:27:21.572Z,26.54
2022-09-23T11:28:46.061Z,26.44
2022-09-23T11:29:50.526Z,26.45
2022-09-23T11:30:58.126Z,26.43
2022-09-23T11:32:10.103Z,26.40
2022-09-23T11:33:20.995Z,26.30
2022-09-23T11:34:45.357Z,26.31
2022-09-23T11:35:50.725Z,26.33
2022-09-23T11:36:59.823Z,26.35
2022-09-23T11:38:03.218Z,26.35
2022-09-23T11:39:15.599Z,26.35
2022-09-23T11:40:17.793Z,26.34
2022-09-23T11:41:32.975Z,26.27
2022-09-23T11:42:36.542Z,26.27
2022-09-23T11:43:39.308Z,26.30
2022-09-23T11:44:44.536Z,26.28
2022-09-23T11:45:45.978Z,26.29
2022-09-23T11:46:50.117Z,26.24
2022-09-23T11:47:53.559Z,26.20
2022-09-23T11:49:18.435Z,26.18
2022-09-23T11:50:19.945Z,26.19
2022-09-23T11:51:22.344Z,26.19
2022-09-23T11:52:36.753Z,26.19
2022-09-23T11:53:41.014Z,26.19
2022-09-23T11:54:46.644Z,26.18
2022-09-23T11:55:57.513Z,26.19
2022-09-23T11:57:00.496Z,26.19
2022-09-23T11:58:08.341Z,26.17
2022-09-23T11:59:39.115Z,26.17
2022-09-23T12:00:49.160Z,26.14
2022-09-23T12:02:11.976Z,26.14
2022-09-23T12:03:43.154Z,25.93
2022-09-23T12:04:55.574Z,25.81
2022-09-23T12:06:12.508Z,25.81
2022-09-23T12:07:14.924Z,25.82
2022-09-23T12:08:25.492Z,25.72
2022-09-23T12:09:57.793Z,25.69
2022-09-23T12:10:59.574Z,25.67
2022-09-23T12:12:05.270Z,25.67
2022-09-23T12:13:34.054Z,25.61
2022-09-23T12:14:38.590Z,25.60
2022-09-23T12:15:47.734Z,25.63
2022-09-23T12:17:14.355Z,25.62
2022-09-23T12:18:18.439Z,25.65
2022-09-23T12:19:29.892Z,25.63
2022-09-23T12:20:32.140Z,25.64
2022-09-23T12:21:59.375Z,25.66
2022-09-23T12:23:33.492Z,25.70
2022-09-23T12:24:46.744Z,25.69
2022-09-23T12:25:48.158Z,25.61
2022-09-23T12:26:50.575Z,25.63
2022-09-23T12:27:53.031Z,25.65
2022-09-23T12:28:54.897Z,25.67
2022-09-23T12:29:58.100Z,25.67
2022-09-23T12:31:00.185Z,25.62
2022-09-23T12:32:02.797Z,25.59
2022-09-23T12:33:16.279Z,25.60
2022-09-23T12:34:26.261Z,25.62
2022-09-23T12:35:35.604Z,25.64
2022-09-23T12:36:37.100Z,25.66
2022-09-23T12:37:38.637Z,25.68
2022-09-23T12:38:49.225Z,25.69
2022-09-23T12:39:50.702Z,25.70
2022-09-23T12:40:55.826Z,25.69
2022-09-23T12:41:58.474Z,25.62
2022-09-23T12:43:01.185Z,25.61
2022-09-23T12:44:12.431Z,25.61
2022-09-23T12:45:32.752Z,25.59
2022-09-23T12:46:34.381Z,25.60
2022-09-23T12:47:38.909Z,25.61
2022-09-23T12:48:44.170Z,25.58
2022-09-23T12:49:45.635Z,25.57
2022-09-23T12:50:47.556Z,25.60
2022-09-23T12:52:07.558Z,25.63
2022-09-23T12:53:29.295Z,25.66
2022-09-23T12:54:30.854Z,25.68
2022-09-23T12:55:34.901Z,25.67
2022-09-23T12:56:36.602Z,25.65
2022-09-23T12:57:41.546Z,25.67
2022-09-23T12:58:43.034Z,25.61
2022-09-23T12:59:56.845Z,25.62
2022-09-23T13:01:06.032Z,25.43
2022-09-23T13:02:19.245Z,25.39
2022-09-23T13:03:39.433Z,25.36
2022-09-23T13:05:03.545Z,25.26
2022-09-23T13:06:23.575Z,25.26
2022-09-23T13:07:30.867Z,25.28
2022-09-23T13:08:32.363Z,25.29
2022-09-23T13:09:41.134Z,25.30
2022-09-23T13:10:48.345Z,25.32
2022-09-23T13:11:50.353Z,25.35
2022-09-23T13:12:52.541Z,25.39
2022-09-23T13:13:54.575Z,25.39
2022-09-23T13:14:56.197Z,25.39
2022-09-23T13:16:13.610Z,25.36
2022-09-23T13:17:30.215Z,25.30
2022-09-23T13:18:51.487Z,25.24
2022-09-23T13:20:03.694Z,25.26
2022-09-23T13:21:07.129Z,25.24
2022-09-23T13:22:09.279Z,25.26
2022-09-23T13:23:34.343Z,25.27
2022-09-23T13:24:45.891Z,25.20
2022-09-23T13:25:47.364Z,25.21
2022-09-23T13:27:06.858Z,25.23
2022-09-23T13:28:13.511Z,25.28
2022-09-23T13:29:17.020Z,25.30
2022-09-23T13:30:25.152Z,25.33
2022-09-23T13:31:27.604Z,25.34
2022-09-23T13:32:31.685Z,25.35
2022-09-23T13:33:42.585Z,25.39
2022-09-23T13:34:46.604Z,25.37
2022-09-23T13:35:51.131Z,25.39
2022-09-23T13:36:53.659Z,25.40
2022-09-23T13:37:55.262Z,25.40
2022-09-23T13:39:16.061Z,25.43
2022-09-23T13:40:18.794Z,25.45
2022-09-23T13:41:20.725Z,25.47
2022-09-23T13:42:27.105Z,25.48
2022-09-23T13:43:31.608Z,25.49
2022-09-23T13:44:33.216Z,25.49
2022-09-23T13:45:37.799Z,25.51
2022-09-23T13:46:46.702Z,25.51
2022-09-23T13:47:48.435Z,25.36
2022-09-23T13:48:54.635Z,25.31
2022-09-23T13:49:56.376Z,25.32
2022-09-23T13:50:58.109Z,25.33
2022-09-23T13:51:59.726Z,25.29
2022-09-23T13:53:01.559Z,25.27
2022-09-23T13:54:03.738Z,25.26
2022-09-23T13:55:05.523Z,25.23
2022-09-23T13:56:13.876Z,25.25
2022-09-23T13:57:41.480Z,25.26
2022-09-23T13:58:43.420Z,25.24
2022-09-23T13:59:44.847Z,25.26
2022-09-23T14:00:48.032Z,25.27
2022-09-23T14:01:49.794Z,25.30
2022-09-23T14:02:52.967Z,25.18
2022-09-23T14:03:54.438Z,25.10
2022-09-23T14:04:56.389Z,25.08